createdAt,value
2022-11-17T00:00:42.270Z,101000.88
2022-11-17T00:03:15.939Z,101004.50
2022-11-17T00:05:44.860Z,101002.84
2022-11-17T00:08:12.565Z,100997.03
2022-11-17T00:10:40.052Z,100999.53
2022-11-17T00:13:27.504Z,100995.91
2022-11-17T00:15:55.095Z,100990.13
2022-11-17T00:18:43.120Z,100986.00
2022-11-17T00:21:19.412Z,100975.78
2022-11-17T00:23:50.865Z,100984.50
2022-11-17T00:26:22.126Z,100985.47
2022-11-17T00:28:58.290Z,100997.50
2022-11-17T00:31:46.370Z,100990.72
2022-11-17T00:34:22.476Z,100984.78
2022-11-17T00:36:53.609Z,100987.19
2022-11-17T00:39:22.632Z,100999.50
2022-11-17T00:41:50.593Z,100985.00
2022-11-17T00:44:18.351Z,100991.97
2022-11-17T00:46:45.869Z,100991.41
2022-11-17T00:49:16.012Z,100985.66
2022-11-17T00:51:43.456Z,100959.09
2022-11-17T00:54:13.455Z,100964.69
2022-11-17T00:56:41.425Z,100955.56
2022-11-17T00:59:08.934Z,100953.06
2022-11-17T01:01:37.520Z,100955.88
2022-11-17T01:04:05.508Z,100953.06
2022-11-17T01:06:42.156Z,100941.38
2022-11-17T01:09:16.074Z,100950.91
2022-11-17T01:11:44.404Z,100944.38
2022-11-17T01:14:15.939Z,100931.97
2022-11-17T01:16:43.998Z,100948.66
2022-11-17T01:19:14.322Z,100946.84
2022-11-17T01:21:42.083Z,100953.19
2022-11-17T01:24:11.646Z,100949.13
2022-11-17T01:26:40.458Z,100945.38
2022-11-17T01:29:08.979Z,100940.69
2022-11-17T01:31:39.331Z,100942.16
2022-11-17T01:34:07.885Z,100940.06
2022-11-17T01:36:57.093Z,100940.75
2022-11-17T01:39:25.585Z,100949.63
2022-11-17T01:41:53.560Z,100946.28
2022-11-17T01:44:53.799Z,100947.28
2022-11-17T01:47:55.137Z,100949.75
2022-11-17T01:50:34.478Z,100952.94
2022-11-17T01:53:05.996Z,100946.28
2022-11-17T01:55:41.746Z,100947.97
2022-11-17T01:58:17.754Z,100945.31
2022-11-17T02:00:45.471Z,100944.06
2022-11-17T02:03:13.490Z,100939.63
2022-11-17T02:05:46.284Z,100936.00
2022-11-17T02:08:15.200Z,100926.63
2022-11-17T02:10:50.219Z,100921.06
2022-11-17T02:13:21.043Z,100909.28
2022-11-17T02:16:13.420Z,100915.22
2022-11-17T02:18:46.580Z,100907.47
2022-11-17T02:21:58.893Z,100917.03
2022-11-17T02:25:10.480Z,100913.41
2022-11-17T02:27:59.242Z,100914.94
2022-11-17T02:30:40.391Z,100909.66
2022-11-17T02:33:18.624Z,100910.19
2022-11-17T02:35:54.395Z,100902.44
2022-11-17T02:38:21.776Z,100905.75
2022-11-17T02:40:55.459Z,100902.97
2022-11-17T02:43:48.117Z,100907.41
2022-11-17T02:46:22.778Z,100913.63
2022-11-17T02:48:58.744Z,100915.28
2022-11-17T02:51:26.347Z,100921.44
2022-11-17T02:53:56.674Z,100920.69
2022-11-17T02:56:24.236Z,100905.72
2022-11-17T02:58:56.308Z,100905.97
2022-11-17T03:01:42.877Z,100902.41
2022-11-17T03:04:32.216Z,100908.56
2022-11-17T03:07:11.401Z,100909.78
2022-11-17T03:09:49.760Z,100902.22
2022-11-17T03:12:29.252Z,100900.63
2022-11-17T03:15:24.476Z,100907.25
2022-11-17T03:18:17.599Z,100901.00
2022-11-17T03:21:04.280Z,100901.53
2022-11-17T03:23:31.686Z,100891.47
2022-11-17T03:26:01.341Z,100880.66
2022-11-17T03:28:30.964Z,100877.03
2022-11-17T03:31:00.789Z,100879.38
2022-11-17T03:33:30.572Z,100873.13
2022-11-17T03:36:24.678Z,100885.63
2022-11-17T03:39:01.816Z,100879.22
2022-11-17T03:41:36.225Z,100877.06
2022-11-17T03:44:06.774Z,100870.00
2022-11-17T03:46:37.255Z,100870.22
2022-11-17T03:49:20.318Z,100872.88
2022-11-17T03:51:47.848Z,100873.91
2022-11-17T03:54:16.058Z,100870.28
2022-11-17T03:57:20.059Z,100871.63
2022-11-17T04:00:04.333Z,100866.84
2022-11-17T04:02:44.596Z,100856.81
2022-11-17T04:05:13.781Z,100853.53
2022-11-17T04:07:43.764Z,100854.53
2022-11-17T04:10:17.424Z,100857.00
2022-11-17T04:13:04.090Z,100850.59
2022-11-17T04:15:50.093Z,100845.31
2022-11-17T04:18:17.611Z,100850.28
2022-11-17T04:20:45.131Z,100842.53
2022-11-17T04:23:14.533Z,100839.91
2022-11-17T04:26:08.785Z,100839.25
2022-11-17T04:28:39.168Z,100838.78
2022-11-17T04:31:12.700Z,100842.06
2022-11-17T04:33:46.463Z,100836.47
2022-11-17T04:36:16.324Z,100836.16
2022-11-17T04:38:47.100Z,100838.13
2022-11-17T04:41:35.141Z,100825.59
2022-11-17T04:44:04.099Z,100815.72
2022-11-17T04:46:33.677Z,100820.03
2022-11-17T04:49:02.199Z,100813.09
2022-11-17T04:51:31.208Z,100814.75
2022-11-17T04:54:00.205Z,100823.31
2022-11-17T04:56:28.374Z,100814.13
2022-11-17T04:58:57.464Z,100807.00
2022-11-17T05:01:26.682Z,100811.63
2022-11-17T05:03:55.202Z,100805.22
2022-11-17T05:06:41.073Z,100811.31
2022-11-17T05:09:11.407Z,100804.88
2022-11-17T05:11:57.813Z,100809.16
2022-11-17T05:14:27.062Z,100804.56
2022-11-17T05:17:11.590Z,100810.50
2022-11-17T05:19:44.537Z,100804.06
2022-11-17T05:22:38.609Z,100800.25
2022-11-17T05:25:06.784Z,100799.59
2022-11-17T05:27:35.658Z,100797.78
2022-11-17T05:30:04.658Z,100796.97
2022-11-17T05:32:34.747Z,100796.63
2022-11-17T05:35:03.643Z,100802.88
2022-11-17T05:37:31.171Z,100801.22
2022-11-17T05:39:58.625Z,100800.41
2022-11-17T05:42:26.575Z,100795.44
2022-11-17T05:44:54.127Z,100790.94
2022-11-17T05:47:21.681Z,100799.69
2022-11-17T05:49:49.411Z,100798.19
2022-11-17T05:52:16.841Z,100793.88
2022-11-17T05:54:44.239Z,100795.50
2022-11-17T05:57:19.976Z,100786.22
2022-11-17T05:59:51.743Z,100787.22
2022-11-17T06:02:30.887Z,100783.22
2022-11-17T06:04:58.650Z,100774.63
2022-11-17T06:07:27.746Z,100788.94
2022-11-17T06:09:55.410Z,100784.97
2022-11-17T06:12:22.946Z,100782.78
2022-11-17T06:14:50.431Z,100778.31
2022-11-17T06:17:29.527Z,100779.47
2022-11-17T06:20:05.370Z,100772.00
2022-11-17T06:22:34.012Z,100762.44
2022-11-17T06:25:05.465Z,100752.34
2022-11-17T06:27:37.184Z,100737.41
2022-11-17T06:30:06.199Z,100734.56
2022-11-17T06:32:36.832Z,100730.72
2022-11-17T06:35:08.762Z,100745.91
2022-11-17T06:37:36.298Z,100733.25
2022-11-17T06:40:04.563Z,100726.25
2022-11-17T06:42:50.764Z,100714.84
2022-11-17T06:45:19.477Z,100726.47
2022-11-17T06:47:46.979Z,100718.81
2022-11-17T06:50:14.807Z,100720.09
2022-11-17T06:52:42.384Z,100713.47
2022-11-17T06:55:10.559Z,100712.06
2022-11-17T06:57:38.122Z,100712.63
2022-11-17T07:00:14.617Z,100716.84
2022-11-17T07:02:42.199Z,100723.44
2022-11-17T07:05:10.190Z,100720.06
2022-11-17T07:07:37.815Z,100721.97
2022-11-17T07:10:05.672Z,100718.75
2022-11-17T07:12:36.060Z,100716.59
2022-11-17T07:15:03.771Z,100716.13
2022-11-17T07:17:32.828Z,100718.22
2022-11-17T07:20:00.470Z,100709.28
2022-11-17T07:22:27.995Z,100716.47
2022-11-17T07:24:55.503Z,100717.06
2022-11-17T07:27:23.070Z,100716.69
2022-11-17T07:29:50.543Z,100704.63
2022-11-17T07:32:18.038Z,100714.94
2022-11-17T07:34:45.559Z,100714.59
2022-11-17T07:37:13.043Z,100702.34
2022-11-17T07:39:40.839Z,100702.78
2022-11-17T07:42:09.127Z,100692.47
2022-11-17T07:44:36.720Z,100690.06
2022-11-17T07:47:04.296Z,100688.22
2022-11-17T07:49:31.845Z,100685.03
2022-11-17T07:51:59.445Z,100684.69
2022-11-17T07:54:26.974Z,100684.28
2022-11-17T07:56:54.584Z,100680.25
2022-11-17T07:59:22.119Z,100678.44
2022-11-17T08:01:52.444Z,100672.50
2022-11-17T08:04:20.554Z,100676.44
2022-11-17T08:06:48.050Z,100672.97
2022-11-17T08:09:16.531Z,100670.50
2022-11-17T08:11:44.417Z,100667.66
2022-11-17T08:14:13.103Z,100665.66
2022-11-17T08:16:41.631Z,100652.75
2022-11-17T08:19:12.505Z,100647.09
2022-11-17T08:21:41.780Z,100644.69
2022-11-17T08:24:09.418Z,100639.69
2022-11-17T08:26:37.072Z,100638.28
2022-11-17T08:29:04.787Z,100634.50
2022-11-17T08:31:32.290Z,100632.09
2022-11-17T08:33:59.910Z,100626.84
2022-11-17T08:36:27.414Z,100619.72
2022-11-17T08:38:54.937Z,100615.91
2022-11-17T08:41:22.488Z,100613.25
2022-11-17T08:43:52.007Z,100611.44
2022-11-17T08:46:19.642Z,100603.28
2022-11-17T08:48:48.957Z,100606.75
2022-11-17T08:51:19.878Z,100600.91
2022-11-17T08:53:47.427Z,100598.09
2022-11-17T08:56:14.905Z,100593.25
2022-11-17T08:58:45.609Z,100589.78
2022-11-17T09:01:18.622Z,100585.88
2022-11-17T09:03:50.350Z,100590.44
2022-11-17T09:09:09.762Z,100576.66
2022-11-17T09:11:41.790Z,100580.75
2022-11-17T09:14:09.379Z,100579.53
2022-11-17T09:16:37.723Z,100580.16
2022-11-17T09:19:05.684Z,100567.31
2022-11-17T09:21:34.246Z,100575.47
2022-11-17T09:24:01.754Z,100576.09
2022-11-17T09:26:29.555Z,100565.72
2022-11-17T09:29:00.747Z,100565.31
2022-11-17T09:31:28.290Z,100563.66
2022-11-17T09:34:12.857Z,100550.44
2022-11-17T09:36:40.589Z,100543.91
2022-11-17T09:39:08.781Z,100549.81
2022-11-17T09:41:56.714Z,100536.78
2022-11-17T09:44:42.512Z,100534.72
2022-11-17T09:47:31.856Z,100532.25
2022-11-17T09:50:34.809Z,100535.72
2022-11-17T09:53:20.919Z,100535.09
2022-11-17T09:55:54.121Z,100522.22
2022-11-17T09:58:35.004Z,100513.84
2022-11-17T10:01:02.768Z,100505.47
2022-11-17T10:03:38.761Z,100492.59
2022-11-17T10:06:22.622Z,100501.22
2022-11-17T10:08:58.946Z,100497.13
2022-11-17T10:11:52.482Z,100488.16
2022-11-17T10:14:23.644Z,100487.97
2022-11-17T10:17:00.266Z,100491.03
2022-11-17T10:19:31.049Z,100485.09
2022-11-17T10:21:58.522Z,100484.31
2022-11-17T10:25:17.168Z,100478.81
2022-11-17T10:28:12.722Z,100470.63
2022-11-17T10:31:15.513Z,100462.28
2022-11-17T10:33:59.355Z,100463.28
2022-11-17T10:37:31.790Z,100449.41
2022-11-17T10:40:44.159Z,100449.81
2022-11-17T10:44:03.114Z,100469.66
2022-11-17T11:20:27.735Z,100470.25
2022-11-17T11:36:37.326Z,100457.22
2022-11-17T11:39:45.905Z,100458.84
2022-11-17T11:42:46.388Z,100460.88
2022-11-17T11:45:35.273Z,100458.41
2022-11-17T11:48:18.824Z,100451.88
2022-11-17T12:01:06.285Z,100409.72
2022-11-17T12:17:02.820Z,100424.00
2022-11-17T12:24:14.203Z,100427.88
2022-11-17T12:36:25.515Z,100415.19
2022-11-17T12:40:27.594Z,100417.84
2022-11-17T12:43:20.522Z,100419.47
2022-11-17T12:46:52.340Z,100427.03
2022-11-17T12:50:26.007Z,100423.97
2022-11-17T12:53:59.806Z,100428.84
2022-11-17T12:57:38.519Z,100426.38
2022-11-17T13:00:50.366Z,100412.44
2022-11-17T13:04:11.834Z,100426.38
2022-11-17T13:37:30.394Z,100445.28
2022-11-17T13:40:38.164Z,100447.94
2022-11-17T13:43:26.847Z,100450.81
2022-11-17T13:45:55.490Z,100453.69
2022-11-17T13:48:37.773Z,100462.50
2022-11-17T13:51:20.450Z,100451.19
2022-11-17T13:53:56.808Z,100449.13
2022-11-17T13:56:44.168Z,100436.00
2022-11-17T13:59:26.435Z,100437.59
2022-11-17T14:02:15.615Z,100437.41
2022-11-17T14:05:26.153Z,100435.13
2022-11-17T14:07:57.160Z,100444.97
2022-11-17T14:10:48.525Z,100451.13
2022-11-17T14:13:28.967Z,100452.75
2022-11-17T14:15:59.557Z,100449.06
2022-11-17T14:18:46.966Z,100448.25
2022-11-17T14:21:19.925Z,100451.28
2022-11-17T14:24:02.550Z,100443.06
2022-11-17T14:26:31.060Z,100442.09
2022-11-17T14:29:07.757Z,100442.84
2022-11-17T14:31:44.758Z,100449.19
2022-11-17T14:34:12.383Z,100442.03
2022-11-17T14:37:24.877Z,100446.91
2022-11-17T14:39:52.368Z,100453.88
2022-11-17T14:45:34.590Z,100454.47
2022-11-17T14:48:03.005Z,100450.34
2022-11-17T14:50:30.590Z,100453.44
2022-11-17T14:52:58.582Z,100450.56
2022-11-17T14:55:57.364Z,100451.53
2022-11-17T14:58:25.433Z,100458.28
2022-11-17T15:04:58.199Z,100456.44
2022-11-17T15:08:49.149Z,100462.38
2022-11-17T15:11:18.465Z,100449.88
2022-11-17T15:13:45.976Z,100442.25
2022-11-17T15:16:14.238Z,100450.84
2022-11-17T15:18:45.939Z,100463.75
2022-11-17T15:21:15.234Z,100460.44
2022-11-17T15:23:43.944Z,100452.22
2022-11-17T15:26:14.505Z,100453.41
2022-11-17T15:28:42.342Z,100455.06
2022-11-17T15:31:12.413Z,100453.97
2022-11-17T15:33:41.518Z,100460.78
2022-11-17T15:36:11.248Z,100464.03
2022-11-17T15:38:40.453Z,100472.41
2022-11-17T15:41:10.035Z,100478.56
2022-11-17T15:43:39.397Z,100475.91
2022-11-17T15:46:12.796Z,100473.44
2022-11-17T15:48:45.050Z,100469.75
2022-11-17T15:51:15.155Z,100466.06
2022-11-17T15:53:44.283Z,100474.06
2022-11-17T15:56:21.143Z,100463.59
2022-11-17T15:58:54.155Z,100463.38
2022-11-17T16:01:29.849Z,100464.22
2022-11-17T16:04:03.218Z,100459.47
2022-11-17T16:06:32.450Z,100471.13
2022-11-17T16:09:00.397Z,100463.50
2022-11-17T16:11:28.443Z,100460.63
2022-11-17T16:13:57.540Z,100460.41
2022-11-17T16:16:27.791Z,100460.84
2022-11-17T16:18:55.626Z,100459.59
2022-11-17T16:21:23.297Z,100457.94
2022-11-17T16:23:54.828Z,100455.72
2022-11-17T16:26:27.026Z,100446.88
2022-11-17T16:29:03.024Z,100443.41
2022-11-17T16:31:33.091Z,100439.09
2022-11-17T16:34:03.192Z,100444.44
2022-11-17T16:36:37.116Z,100448.81
2022-11-17T16:39:06.889Z,100445.31
2022-11-17T16:41:39.995Z,100443.69
2022-11-17T16:44:09.796Z,100451.09
2022-11-17T16:46:38.355Z,100449.31
2022-11-17T16:49:08.304Z,100454.03
2022-11-17T16:51:36.005Z,100456.31
2022-11-17T16:54:06.812Z,100455.47
2022-11-17T16:56:35.126Z,100459.41
2022-11-17T16:59:02.591Z,100456.38
2022-11-17T17:01:33.325Z,100443.88
2022-11-17T17:04:04.245Z,100450.44
2022-11-17T17:06:34.771Z,100436.69
2022-11-17T17:09:05.380Z,100440.84
2022-11-17T17:11:34.514Z,100442.69
2022-11-17T17:14:04.866Z,100440.59
2022-11-17T17:16:34.383Z,100436.38
2022-11-17T17:19:09.401Z,100432.53
2022-11-17T17:21:38.593Z,100437.19
2022-11-17T17:24:06.756Z,100428.59
2022-11-17T17:26:35.805Z,100434.16
2022-11-17T17:29:06.144Z,100442.31
2022-11-17T17:31:37.716Z,100443.72
2022-11-17T17:34:06.762Z,100456.41
2022-11-17T17:36:35.863Z,100442.25
2022-11-17T17:39:04.139Z,100439.38
2022-11-17T17:41:39.965Z,100435.28
2022-11-17T17:44:08.867Z,100432.03
2022-11-17T17:46:38.678Z,100430.41
2022-11-17T17:49:06.984Z,100443.94
2022-11-17T17:51:41.958Z,100437.19
2022-11-17T17:54:16.001Z,100445.56
2022-11-17T17:56:43.866Z,100446.59
2022-11-17T17:59:13.851Z,100442.31
2022-11-17T18:01:42.485Z,100441.47
2022-11-17T18:04:15.299Z,100441.47
2022-11-17T18:06:47.321Z,100435.94
2022-11-17T18:09:19.508Z,100438.81
2022-11-17T18:11:50.826Z,100441.06
2022-11-17T18:14:24.573Z,100437.38
2022-11-17T18:16:52.995Z,100437.94
2022-11-17T18:19:21.032Z,100435.28
2022-11-17T18:21:48.574Z,100430.56
2022-11-17T18:24:16.190Z,100435.28
2022-11-17T18:26:44.091Z,100434.53
2022-11-17T18:29:19.600Z,100431.25
2022-11-17T18:31:48.143Z,100441.06
2022-11-17T18:34:21.886Z,100435.13
2022-11-17T18:36:50.823Z,100436.97
2022-11-17T18:39:18.816Z,100439.44
2022-11-17T18:41:46.716Z,100436.16
2022-11-17T18:44:15.726Z,100426.72
2022-11-17T18:46:43.643Z,100433.66
2022-11-17T18:49:11.452Z,100430.34
2022-11-17T18:51:38.954Z,100429.09
2022-11-17T18:54:09.616Z,100423.75
2022-11-17T18:56:38.605Z,100429.09
2022-11-17T18:59:11.938Z,100426.25
2022-11-17T19:01:42.188Z,100428.28
2022-11-17T19:04:11.896Z,100415.22
2022-11-17T19:06:39.479Z,100407.00
2022-11-17T19:09:08.479Z,100418.44
2022-11-17T19:11:36.300Z,100426.22
2022-11-17T19:14:07.259Z,100432.97
2022-11-17T19:16:44.397Z,100429.50
2022-11-17T19:19:14.039Z,100430.31
2022-11-17T19:21:42.496Z,100415.91
2022-11-17T19:24:35.431Z,100412.63
2022-11-17T19:27:05.314Z,100411.78
2022-11-17T19:29:32.788Z,100415.66
2022-11-17T19:32:00.426Z,100415.81
2022-11-17T19:34:27.949Z,100424.00
2022-11-17T19:36:55.596Z,100425.63
2022-11-17T19:39:23.120Z,100425.38
2022-11-17T19:41:50.635Z,100430.06
2022-11-17T19:44:18.276Z,100426.81
2022-11-17T19:46:45.847Z,100426.38
2022-11-17T19:49:13.510Z,100428.41
2022-11-17T19:51:42.318Z,100427.72
2022-11-17T19:54:12.128Z,100439.75
2022-11-17T19:56:39.723Z,100428.72
2022-11-17T19:59:11.012Z,100430.09
2022-11-17T20:04:23.009Z,100428.19
2022-11-17T20:06:52.898Z,100434.56
2022-11-17T20:09:20.545Z,100443.00
2022-11-17T20:11:48.097Z,100441.06
2022-11-17T20:14:15.601Z,100440.44
2022-11-17T20:16:43.177Z,100423.38
2022-11-17T20:19:29.279Z,100426.81
2022-11-17T20:21:56.758Z,100426.06
2022-11-17T20:24:24.293Z,100431.59
2022-11-17T20:26:51.868Z,100427.31
2022-11-17T20:29:19.493Z,100422.56
2022-11-17T20:31:47.116Z,100406.13
2022-11-17T20:34:14.623Z,100417.81
2022-11-17T20:36:42.132Z,100423.97
2022-11-17T20:39:09.707Z,100426.66
2022-11-17T20:41:37.264Z,100424.81
2022-11-17T20:44:04.948Z,100419.28
2022-11-17T20:46:32.437Z,100419.72
2022-11-17T20:48:59.930Z,100423.28
2022-11-17T20:51:27.384Z,100424.19
2022-11-17T20:53:55.541Z,100421.94
2022-11-17T20:56:23.281Z,100421.03
2022-11-17T20:58:50.773Z,100429.56
2022-11-17T21:01:20.688Z,100439.06
2022-11-17T21:03:48.761Z,100432.44
2022-11-17T21:06:16.999Z,100426.97
2022-11-17T21:08:47.189Z,100438.38
2022-11-17T21:11:39.203Z,100436.94
2022-11-17T21:14:08.964Z,100434.03
2022-11-17T21:16:42.652Z,100434.09
2022-11-17T21:19:10.406Z,100436.78
2022-11-17T21:21:37.914Z,100434.34
2022-11-17T21:25:20.927Z,100432.22
2022-11-17T21:28:13.707Z,100423.59
2022-11-17T21:30:41.291Z,100428.94
2022-11-17T21:33:08.788Z,100429.38
2022-11-17T21:36:51.145Z,100433.41
2022-11-17T21:39:43.670Z,100436.84
2022-11-17T21:42:11.217Z,100426.16
2022-11-17T21:49:21.441Z,100424.75
2022-11-17T21:51:48.940Z,100421.88
2022-11-17T21:54:16.724Z,100427.63
2022-11-17T21:56:44.330Z,100425.63
2022-11-17T21:59:22.622Z,100413.31
2022-11-17T22:01:50.192Z,100418.25
2022-11-17T22:04:19.395Z,100420.06
2022-11-17T22:06:46.895Z,100420.66
2022-11-17T22:09:14.709Z,100411.63
2022-11-17T22:11:55.965Z,100410.00
2022-11-17T22:14:23.572Z,100417.56
2022-11-17T22:16:58.416Z,100416.97
2022-11-17T22:19:28.669Z,100395.00
2022-11-17T22:21:56.194Z,100410.84
2022-11-17T22:24:23.788Z,100412.94
2022-11-17T22:26:51.862Z,100408.63
2022-11-17T22:29:21.464Z,100414.78
2022-11-17T22:31:50.355Z,100408.03
2022-11-17T22:34:18.931Z,100412.72
2022-11-17T22:36:46.674Z,100422.72
2022-11-17T22:39:14.305Z,100416.38
2022-11-17T22:41:42.011Z,100420.50
2022-11-17T22:44:14.190Z,100416.78
2022-11-17T22:46:43.445Z,100412.50
2022-11-17T22:49:11.154Z,100412.72
2022-11-17T22:51:57.106Z,100404.28
2022-11-17T22:54:24.635Z,100411.69
2022-11-17T22:56:52.146Z,100409.81
2022-11-17T22:59:21.395Z,100409.06
2022-11-17T23:01:48.956Z,100417.06
2022-11-17T23:04:16.844Z,100415.28
2022-11-17T23:06:45.213Z,100410.09
2022-11-17T23:09:13.054Z,100408.50
2022-11-17T23:11:40.913Z,100399.94
2022-11-17T23:14:11.109Z,100401.78
2022-11-17T23:16:39.472Z,100402.88
2022-11-17T23:19:09.722Z,100402.38
2022-11-17T23:21:37.214Z,100400.59
2022-11-17T23:24:10.097Z,100404.72
2022-11-17T23:26:37.596Z,100403.91
2022-11-17T23:29:05.365Z,100399.81
2022-11-17T23:31:33.055Z,100404.31
2022-11-17T23:34:00.645Z,100412.94
2022-11-17T23:36:28.145Z,100404.72
2022-11-17T23:38:57.879Z,100396.13
2022-11-17T23:41:25.794Z,100407.38
2022-11-17T23:43:54.565Z,100403.09
2022-11-17T23:46:24.667Z,100400.19
2022-11-17T23:48:52.433Z,100405.97
2022-11-17T23:51:22.813Z,100407.38
2022-11-17T23:53:50.894Z,100410.19
2022-11-17T23:56:20.880Z,100402.78
2022-11-17T23:59:15.185Z,100392.72
